PGT1794 LTFJ-LTFE
Flight info
| Callsign | PGT1794 |
|---|---|
| Flight time | 0h 54m |
| Altitude | 26000 |
| Route | ROXUK T409 NUMTI DCT KULAR T44 KAVAK |
| Aircraft | A320/M-SDE3FGHIRWY/LB1 |
Departure
| Time | 2026-05-07 19:35 |
|---|---|
| Airport | Istanbul Sabiha Gökçen International Airport (LTFJ) |
Arrival
| Time | 2026-05-07 20:29 |
|---|---|
| Airport | Milas Bodrum International Airport (LTFE) |
| Time | Latitude | Longitude | Altitude | Speed | Heading |
|---|---|---|---|---|---|
| 2026-05-07 19:07 | 40.90602 | 29.32078 | 321 ft | 0 kts | 156° |
| 2026-05-07 19:24 | 40.90617 | 29.32070 | 319 ft | 2 kts | 156° |
| 2026-05-07 19:24 | 40.90633 | 29.32061 | 318 ft | 2 kts | 156° |
| 2026-05-07 19:24 | 40.90649 | 29.32052 | 321 ft | 2 kts | 156° |
| 2026-05-07 19:25 | 40.90664 | 29.32043 | 321 ft | 2 kts | 156° |
| 2026-05-07 19:25 | 40.90680 | 29.32034 | 320 ft | 2 kts | 188° |
| 2026-05-07 19:25 | 40.90685 | 29.32034 | 320 ft | 0 kts | 208° |
| 2026-05-07 19:28 | 40.90680 | 29.32031 | 319 ft | 5 kts | 210° |
| 2026-05-07 19:28 | 40.90649 | 29.31978 | 321 ft | 7 kts | 241° |
| 2026-05-07 19:28 | 40.90608 | 29.31935 | 321 ft | 8 kts | 186° |
| 2026-05-07 19:29 | 40.90546 | 29.31962 | 321 ft | 9 kts | 156° |
| 2026-05-07 19:29 | 40.90491 | 29.31988 | 321 ft | 11 kts | 176° |
| 2026-05-07 19:29 | 40.90429 | 29.31913 | 321 ft | 13 kts | 244° |
| 2026-05-07 19:29 | 40.90387 | 29.31798 | 321 ft | 14 kts | 244° |
| 2026-05-07 19:30 | 40.90340 | 29.31668 | 319 ft | 17 kts | 244° |
| 2026-05-07 19:30 | 40.90287 | 29.31522 | 321 ft | 18 kts | 244° |
| 2026-05-07 19:30 | 40.90232 | 29.31369 | 321 ft | 19 kts | 244° |
| 2026-05-07 19:30 | 40.90173 | 29.31211 | 321 ft | 20 kts | 244° |
| 2026-05-07 19:31 | 40.90113 | 29.31048 | 321 ft | 20 kts | 244° |
| 2026-05-07 19:31 | 40.90050 | 29.30876 | 319 ft | 21 kts | 244° |
| 2026-05-07 19:31 | 40.89985 | 29.30701 | 321 ft | 21 kts | 244° |
| 2026-05-07 19:31 | 40.89919 | 29.30524 | 320 ft | 22 kts | 244° |
| 2026-05-07 19:32 | 40.89851 | 29.30340 | 320 ft | 23 kts | 244° |
| 2026-05-07 19:32 | 40.89782 | 29.30149 | 318 ft | 23 kts | 244° |
| 2026-05-07 19:32 | 40.89715 | 29.29970 | 320 ft | 22 kts | 244° |
| 2026-05-07 19:32 | 40.89649 | 29.29788 | 320 ft | 22 kts | 244° |
| 2026-05-07 19:33 | 40.89580 | 29.29601 | 320 ft | 23 kts | 244° |
| 2026-05-07 19:33 | 40.89517 | 29.29430 | 320 ft | 17 kts | 244° |
| 2026-05-07 19:33 | 40.89466 | 29.29296 | 321 ft | 13 kts | 240° |
| 2026-05-07 19:33 | 40.89384 | 29.29260 | 319 ft | 14 kts | 164° |
| 2026-05-07 19:34 | 40.89311 | 29.29316 | 321 ft | 10 kts | 129° |
| 2026-05-07 19:34 | 40.89307 | 29.29426 | 322 ft | 14 kts | 69° |
| 2026-05-07 19:34 | 40.89352 | 29.29556 | 321 ft | 27 kts | 65° |
| 2026-05-07 19:34 | 40.89559 | 29.30121 | 321 ft | 107 kts | 64° |
| 2026-05-07 19:35 | 40.89988 | 29.31279 | 319 ft | 169 kts | 64° |
| 2026-05-07 19:35 | 40.90542 | 29.32827 | 602 ft | 199 kts | 65° |
| 2026-05-07 19:35 | 40.91172 | 29.34568 | 1197 ft | 222 kts | 64° |
| 2026-05-07 19:35 | 40.91886 | 29.36497 | 1569 ft | 244 kts | 63° |
| 2026-05-07 19:36 | 40.92655 | 29.38568 | 2152 ft | 256 kts | 63° |
| 2026-05-07 19:36 | 40.93365 | 29.40754 | 2864 ft | 264 kts | 77° |
| 2026-05-07 19:36 | 40.93252 | 29.43179 | 3506 ft | 274 kts | 112° |
| 2026-05-07 19:36 | 40.92104 | 29.45170 | 4121 ft | 278 kts | 147° |
| 2026-05-07 19:37 | 40.90378 | 29.46309 | 4890 ft | 278 kts | 163° |
| 2026-05-07 19:37 | 40.88528 | 29.47079 | 5667 ft | 280 kts | 166° |
| 2026-05-07 19:37 | 40.86648 | 29.47822 | 6445 ft | 284 kts | 165° |
| 2026-05-07 19:37 | 40.84764 | 29.48670 | 7178 ft | 287 kts | 161° |
| 2026-05-07 19:38 | 40.82892 | 29.49644 | 7893 ft | 291 kts | 159° |
| 2026-05-07 19:38 | 40.81021 | 29.50724 | 8607 ft | 295 kts | 157° |
| 2026-05-07 19:38 | 40.79143 | 29.51874 | 9347 ft | 299 kts | 155° |
| 2026-05-07 19:38 | 40.77320 | 29.53216 | 10030 ft | 303 kts | 143° |
| 2026-05-07 19:39 | 40.75808 | 29.55166 | 10648 ft | 307 kts | 127° |
| 2026-05-07 19:39 | 40.74474 | 29.57503 | 10840 ft | 330 kts | 126° |
| 2026-05-07 19:39 | 40.73052 | 29.60007 | 10985 ft | 352 kts | 126° |
| 2026-05-07 19:39 | 40.72070 | 29.61735 | 11244 ft | 359 kts | 126° |
| 2026-05-07 19:40 | 40.69850 | 29.65063 | 12019 ft | 365 kts | 140° |
| 2026-05-07 19:40 | 40.67746 | 29.66964 | 12652 ft | 368 kts | 153° |
| 2026-05-07 19:40 | 40.65391 | 29.68196 | 13271 ft | 371 kts | 166° |
| 2026-05-07 19:40 | 40.62842 | 29.68716 | 13887 ft | 373 kts | 179° |
| 2026-05-07 19:41 | 40.60240 | 29.68711 | 14446 ft | 375 kts | 182° |
| 2026-05-07 19:41 | 40.57619 | 29.68689 | 14977 ft | 378 kts | 181° |
| 2026-05-07 19:41 | 40.54971 | 29.68675 | 15526 ft | 382 kts | 181° |
| 2026-05-07 19:41 | 40.52303 | 29.68668 | 16052 ft | 385 kts | 181° |
| 2026-05-07 19:42 | 40.49615 | 29.68667 | 16583 ft | 388 kts | 181° |
| 2026-05-07 19:42 | 40.46903 | 29.68669 | 17108 ft | 391 kts | 182° |
| 2026-05-07 19:42 | 40.44175 | 29.68667 | 17626 ft | 394 kts | 182° |
| 2026-05-07 19:42 | 40.41418 | 29.68663 | 18139 ft | 397 kts | 182° |
| 2026-05-07 19:43 | 40.38637 | 29.68656 | 18610 ft | 401 kts | 182° |
| 2026-05-07 19:43 | 40.35842 | 29.68649 | 19047 ft | 404 kts | 182° |
| 2026-05-07 19:43 | 40.33016 | 29.68639 | 19482 ft | 407 kts | 182° |
| 2026-05-07 19:43 | 40.30178 | 29.68631 | 19899 ft | 410 kts | 182° |
| 2026-05-07 19:44 | 40.27312 | 29.68625 | 20313 ft | 413 kts | 182° |
| 2026-05-07 19:44 | 40.24464 | 29.68619 | 20711 ft | 416 kts | 182° |
| 2026-05-07 19:44 | 40.21560 | 29.68613 | 21115 ft | 419 kts | 182° |
| 2026-05-07 19:44 | 40.18637 | 29.68604 | 21516 ft | 422 kts | 182° |
| 2026-05-07 19:45 | 40.15687 | 29.68805 | 21899 ft | 426 kts | 177° |
| 2026-05-07 19:45 | 40.12723 | 29.69147 | 22287 ft | 430 kts | 177° |
| 2026-05-07 19:45 | 40.09734 | 29.69489 | 22669 ft | 432 kts | 177° |
| 2026-05-07 19:45 | 40.06726 | 29.69830 | 23042 ft | 435 kts | 177° |
| 2026-05-07 19:46 | 40.03697 | 29.70170 | 23425 ft | 438 kts | 177° |
| 2026-05-07 19:46 | 40.00648 | 29.70515 | 23785 ft | 441 kts | 177° |
| 2026-05-07 19:46 | 39.97585 | 29.70866 | 24123 ft | 443 kts | 177° |
| 2026-05-07 19:46 | 39.94508 | 29.71211 | 24441 ft | 445 kts | 179° |
| 2026-05-07 19:47 | 39.91421 | 29.71140 | 24748 ft | 444 kts | 189° |
| 2026-05-07 19:47 | 39.88391 | 29.70391 | 25062 ft | 442 kts | 199° |
| 2026-05-07 19:47 | 39.85519 | 29.68982 | 25359 ft | 440 kts | 209° |
| 2026-05-07 19:47 | 39.82859 | 29.67016 | 25657 ft | 440 kts | 214° |
| 2026-05-07 19:48 | 39.80235 | 29.64947 | 25956 ft | 442 kts | 214° |
| 2026-05-07 19:48 | 39.77601 | 29.62885 | 26135 ft | 442 kts | 214° |
| 2026-05-07 19:48 | 39.75022 | 29.60883 | 26172 ft | 433 kts | 214° |
| 2026-05-07 19:48 | 39.72445 | 29.58891 | 26171 ft | 429 kts | 214° |
| 2026-05-07 19:49 | 39.69882 | 29.56907 | 26172 ft | 428 kts | 214° |
| 2026-05-07 19:49 | 39.67325 | 29.54922 | 26170 ft | 428 kts | 214° |
| 2026-05-07 19:49 | 39.64775 | 29.52940 | 26170 ft | 427 kts | 214° |
| 2026-05-07 19:49 | 39.62245 | 29.50931 | 26172 ft | 426 kts | 215° |
| 2026-05-07 19:50 | 39.60563 | 29.49534 | 26171 ft | 425 kts | 216° |
| 2026-05-07 19:50 | 39.58132 | 29.47448 | 26171 ft | 425 kts | 217° |
| 2026-05-07 19:50 | 39.55683 | 29.45304 | 26171 ft | 425 kts | 217° |
| 2026-05-07 19:50 | 39.53239 | 29.43157 | 26170 ft | 425 kts | 217° |
| 2026-05-07 19:51 | 39.50787 | 29.41016 | 26166 ft | 424 kts | 217° |
| 2026-05-07 19:51 | 39.48332 | 29.38894 | 26166 ft | 424 kts | 217° |
| 2026-05-07 19:51 | 39.45871 | 29.36790 | 26166 ft | 424 kts | 216° |
| 2026-05-07 19:51 | 39.43397 | 29.34689 | 26165 ft | 424 kts | 216° |
| 2026-05-07 19:52 | 39.40930 | 29.32599 | 26162 ft | 424 kts | 216° |
| 2026-05-07 19:52 | 39.38462 | 29.30508 | 26162 ft | 424 kts | 216° |
| 2026-05-07 19:52 | 39.35996 | 29.28420 | 26164 ft | 424 kts | 216° |
| 2026-05-07 19:52 | 39.33530 | 29.26332 | 26158 ft | 424 kts | 216° |
| 2026-05-07 19:53 | 39.31064 | 29.24247 | 26152 ft | 424 kts | 216° |
| 2026-05-07 19:53 | 39.28596 | 29.22155 | 26159 ft | 423 kts | 216° |
| 2026-05-07 19:53 | 39.26139 | 29.20073 | 26164 ft | 423 kts | 216° |
| 2026-05-07 19:53 | 39.23677 | 29.17989 | 26168 ft | 423 kts | 216° |
| 2026-05-07 19:54 | 39.21222 | 29.15913 | 26173 ft | 423 kts | 216° |
| 2026-05-07 19:54 | 39.18762 | 29.13834 | 26174 ft | 422 kts | 216° |
| 2026-05-07 19:54 | 39.16302 | 29.11754 | 26170 ft | 422 kts | 216° |
| 2026-05-07 19:54 | 39.13849 | 29.09683 | 26172 ft | 422 kts | 216° |
| 2026-05-07 19:55 | 39.11389 | 29.07612 | 26166 ft | 422 kts | 216° |
| 2026-05-07 19:55 | 39.08935 | 29.05553 | 26169 ft | 421 kts | 216° |
| 2026-05-07 19:55 | 39.06479 | 29.03493 | 26169 ft | 421 kts | 216° |
| 2026-05-07 19:55 | 39.04025 | 29.01433 | 26165 ft | 421 kts | 216° |
| 2026-05-07 19:56 | 39.01568 | 28.99371 | 26171 ft | 421 kts | 216° |
| 2026-05-07 19:56 | 38.99111 | 28.97310 | 26168 ft | 421 kts | 216° |
| 2026-05-07 19:56 | 38.96657 | 28.95255 | 26164 ft | 421 kts | 216° |
| 2026-05-07 19:56 | 38.94204 | 28.93203 | 26169 ft | 421 kts | 216° |
| 2026-05-07 19:57 | 38.91783 | 28.91178 | 26161 ft | 421 kts | 216° |
| 2026-05-07 19:57 | 38.89333 | 28.89129 | 26166 ft | 421 kts | 216° |
| 2026-05-07 19:57 | 38.86880 | 28.87074 | 26167 ft | 420 kts | 216° |
| 2026-05-07 19:57 | 38.84430 | 28.85024 | 26158 ft | 420 kts | 216° |
| 2026-05-07 19:58 | 38.81979 | 28.82978 | 26156 ft | 421 kts | 216° |
| 2026-05-07 19:58 | 38.79528 | 28.80937 | 26156 ft | 421 kts | 216° |
| 2026-05-07 19:58 | 38.77074 | 28.78895 | 26152 ft | 421 kts | 216° |
| 2026-05-07 19:58 | 38.74612 | 28.76847 | 26152 ft | 421 kts | 216° |
| 2026-05-07 19:59 | 38.72156 | 28.74804 | 26149 ft | 421 kts | 216° |
| 2026-05-07 19:59 | 38.69699 | 28.72762 | 26144 ft | 421 kts | 216° |
| 2026-05-07 19:59 | 38.67242 | 28.70723 | 26141 ft | 421 kts | 216° |
| 2026-05-07 19:59 | 38.64789 | 28.68692 | 26164 ft | 414 kts | 216° |
| 2026-05-07 20:00 | 38.62412 | 28.66741 | 26108 ft | 399 kts | 214° |
| 2026-05-07 20:00 | 38.59960 | 28.65165 | 25983 ft | 390 kts | 204° |
| 2026-05-07 20:00 | 38.57396 | 28.64153 | 25859 ft | 381 kts | 194° |
| 2026-05-07 20:00 | 38.54799 | 28.63705 | 25736 ft | 373 kts | 185° |
| 2026-05-07 20:01 | 38.52237 | 28.63769 | 25582 ft | 365 kts | 179° |
| 2026-05-07 20:01 | 38.49722 | 28.63985 | 25291 ft | 360 kts | 179° |
| 2026-05-07 20:01 | 38.47234 | 28.64192 | 24939 ft | 356 kts | 179° |
| 2026-05-07 20:01 | 38.44771 | 28.64391 | 24584 ft | 353 kts | 179° |
| 2026-05-07 20:02 | 38.42328 | 28.64588 | 24209 ft | 351 kts | 179° |
| 2026-05-07 20:02 | 38.39897 | 28.64786 | 23857 ft | 349 kts | 179° |
| 2026-05-07 20:02 | 38.37483 | 28.64985 | 23499 ft | 346 kts | 179° |
| 2026-05-07 20:02 | 38.35083 | 28.65184 | 23099 ft | 344 kts | 179° |
| 2026-05-07 20:03 | 38.32707 | 28.65381 | 22728 ft | 341 kts | 179° |
| 2026-05-07 20:03 | 38.30347 | 28.65575 | 22363 ft | 339 kts | 180° |
| 2026-05-07 20:03 | 38.27996 | 28.65767 | 22000 ft | 337 kts | 180° |
| 2026-05-07 20:03 | 38.25665 | 28.65957 | 21658 ft | 334 kts | 180° |
| 2026-05-07 20:04 | 38.23375 | 28.66144 | 21325 ft | 333 kts | 180° |
| 2026-05-07 20:04 | 38.21072 | 28.66333 | 20969 ft | 331 kts | 180° |
| 2026-05-07 20:04 | 38.18779 | 28.66519 | 20666 ft | 329 kts | 180° |
| 2026-05-07 20:04 | 38.16504 | 28.66704 | 20343 ft | 327 kts | 180° |
| 2026-05-07 20:05 | 38.14236 | 28.66891 | 20016 ft | 326 kts | 180° |
| 2026-05-07 20:05 | 38.11982 | 28.67077 | 19726 ft | 324 kts | 180° |
| 2026-05-07 20:05 | 38.09735 | 28.67261 | 19421 ft | 322 kts | 180° |
| 2026-05-07 20:05 | 38.07498 | 28.67445 | 19102 ft | 321 kts | 180° |
| 2026-05-07 20:06 | 38.05269 | 28.67628 | 18782 ft | 320 kts | 180° |
| 2026-05-07 20:06 | 38.03046 | 28.67808 | 18461 ft | 319 kts | 180° |
| 2026-05-07 20:06 | 38.00835 | 28.67988 | 18123 ft | 318 kts | 180° |
| 2026-05-07 20:06 | 37.98636 | 28.68168 | 17757 ft | 316 kts | 180° |
| 2026-05-07 20:07 | 37.96443 | 28.68348 | 17425 ft | 315 kts | 180° |
| 2026-05-07 20:07 | 37.94264 | 28.68529 | 17103 ft | 313 kts | 180° |
| 2026-05-07 20:07 | 37.92094 | 28.68706 | 16810 ft | 312 kts | 180° |
| 2026-05-07 20:07 | 37.89934 | 28.68881 | 16536 ft | 311 kts | 180° |
| 2026-05-07 20:08 | 37.87777 | 28.69057 | 16249 ft | 309 kts | 180° |
| 2026-05-07 20:08 | 37.85631 | 28.69231 | 15953 ft | 309 kts | 180° |
| 2026-05-07 20:08 | 37.83488 | 28.69405 | 15686 ft | 308 kts | 180° |
| 2026-05-07 20:08 | 37.81353 | 28.69577 | 15426 ft | 307 kts | 180° |
| 2026-05-07 20:09 | 37.79228 | 28.69747 | 15147 ft | 306 kts | 179° |
| 2026-05-07 20:09 | 37.77110 | 28.69915 | 14882 ft | 305 kts | 179° |
| 2026-05-07 20:09 | 37.74997 | 28.70086 | 14619 ft | 304 kts | 179° |
| 2026-05-07 20:10 | 37.70794 | 28.70427 | 14090 ft | 302 kts | 180° |
| 2026-05-07 20:10 | 37.68700 | 28.70581 | 13808 ft | 300 kts | 180° |
| 2026-05-07 20:10 | 37.66622 | 28.70724 | 13539 ft | 299 kts | 180° |
| 2026-05-07 20:10 | 37.64554 | 28.70867 | 13272 ft | 297 kts | 179° |
| 2026-05-07 20:11 | 37.62523 | 28.71011 | 13008 ft | 295 kts | 179° |
| 2026-05-07 20:11 | 37.60483 | 28.71155 | 12752 ft | 293 kts | 179° |
| 2026-05-07 20:11 | 37.58455 | 28.71297 | 12481 ft | 291 kts | 179° |
| 2026-05-07 20:11 | 37.56443 | 28.71437 | 12225 ft | 289 kts | 178° |
| 2026-05-07 20:12 | 37.54442 | 28.71577 | 11960 ft | 287 kts | 178° |
| 2026-05-07 20:12 | 37.52462 | 28.71717 | 11695 ft | 284 kts | 178° |
| 2026-05-07 20:12 | 37.50493 | 28.71855 | 11427 ft | 282 kts | 178° |
| 2026-05-07 20:12 | 37.48537 | 28.72004 | 11147 ft | 280 kts | 176° |
| 2026-05-07 20:13 | 37.46597 | 28.72184 | 10863 ft | 278 kts | 176° |
| 2026-05-07 20:13 | 37.44676 | 28.72376 | 10604 ft | 276 kts | 175° |
| 2026-05-07 20:13 | 37.42763 | 28.72569 | 10293 ft | 276 kts | 176° |
| 2026-05-07 20:13 | 37.40853 | 28.72761 | 9998 ft | 274 kts | 176° |
| 2026-05-07 20:14 | 37.38955 | 28.72829 | 9681 ft | 272 kts | 187° |
| 2026-05-07 20:14 | 37.37140 | 28.72247 | 9339 ft | 269 kts | 205° |
| 2026-05-07 20:14 | 37.35565 | 28.71017 | 8992 ft | 266 kts | 223° |
| 2026-05-07 20:14 | 37.34361 | 28.69279 | 8639 ft | 263 kts | 240° |
| 2026-05-07 20:15 | 37.33559 | 28.67225 | 8274 ft | 262 kts | 248° |
| 2026-05-07 20:15 | 37.32813 | 28.65137 | 7933 ft | 261 kts | 247° |
| 2026-05-07 20:15 | 37.32073 | 28.63088 | 7590 ft | 261 kts | 247° |
| 2026-05-07 20:15 | 37.31324 | 28.61018 | 7248 ft | 260 kts | 247° |
| 2026-05-07 20:16 | 37.30579 | 28.58962 | 7110 ft | 258 kts | 246° |
| 2026-05-07 20:16 | 37.29831 | 28.56899 | 7111 ft | 260 kts | 247° |
| 2026-05-07 20:16 | 37.29080 | 28.54824 | 7110 ft | 261 kts | 247° |
| 2026-05-07 20:16 | 37.28329 | 28.52747 | 7106 ft | 261 kts | 247° |
| 2026-05-07 20:17 | 37.27579 | 28.50674 | 7103 ft | 261 kts | 246° |
| 2026-05-07 20:17 | 37.26825 | 28.48595 | 7104 ft | 261 kts | 246° |
| 2026-05-07 20:17 | 37.26073 | 28.46521 | 7105 ft | 261 kts | 246° |
| 2026-05-07 20:17 | 37.25320 | 28.44445 | 7106 ft | 261 kts | 246° |
| 2026-05-07 20:18 | 37.24566 | 28.42365 | 7105 ft | 261 kts | 246° |
| 2026-05-07 20:18 | 37.23812 | 28.40290 | 7106 ft | 261 kts | 247° |
| 2026-05-07 20:18 | 37.23061 | 28.38219 | 7103 ft | 261 kts | 246° |
| 2026-05-07 20:18 | 37.22310 | 28.36146 | 7102 ft | 258 kts | 246° |
| 2026-05-07 20:19 | 37.21591 | 28.34176 | 7097 ft | 241 kts | 246° |
| 2026-05-07 20:19 | 37.20898 | 28.32279 | 7106 ft | 237 kts | 246° |
| 2026-05-07 20:19 | 37.20211 | 28.30397 | 7099 ft | 238 kts | 247° |
| 2026-05-07 20:19 | 37.19524 | 28.28514 | 7104 ft | 237 kts | 247° |
| 2026-05-07 20:20 | 37.18837 | 28.26629 | 7104 ft | 237 kts | 246° |
| 2026-05-07 20:20 | 37.18155 | 28.24754 | 7096 ft | 237 kts | 247° |
| 2026-05-07 20:20 | 37.17467 | 28.22876 | 7101 ft | 236 kts | 246° |
| 2026-05-07 20:20 | 37.16782 | 28.21009 | 7098 ft | 236 kts | 246° |
| 2026-05-07 20:21 | 37.16097 | 28.19139 | 7099 ft | 236 kts | 247° |
| 2026-05-07 20:21 | 37.15410 | 28.17262 | 7100 ft | 237 kts | 246° |
| 2026-05-07 20:21 | 37.14724 | 28.15388 | 7098 ft | 236 kts | 247° |
| 2026-05-07 20:21 | 37.14245 | 28.13455 | 7096 ft | 235 kts | 265° |
| 2026-05-07 20:22 | 37.14300 | 28.11433 | 7095 ft | 232 kts | 285° |
| 2026-05-07 20:22 | 37.14748 | 28.09495 | 7096 ft | 231 kts | 289° |
| 2026-05-07 20:22 | 37.15220 | 28.07569 | 7095 ft | 231 kts | 289° |
| 2026-05-07 20:22 | 37.15689 | 28.05645 | 7093 ft | 231 kts | 288° |
| 2026-05-07 20:23 | 37.16156 | 28.03724 | 7087 ft | 230 kts | 288° |
| 2026-05-07 20:23 | 37.16622 | 28.01800 | 6951 ft | 231 kts | 288° |
| 2026-05-07 20:23 | 37.17088 | 27.99879 | 6619 ft | 229 kts | 288° |
| 2026-05-07 20:23 | 37.17538 | 27.98018 | 6247 ft | 228 kts | 288° |
| 2026-05-07 20:24 | 37.17997 | 27.96122 | 5848 ft | 226 kts | 288° |
| 2026-05-07 20:24 | 37.18450 | 27.94249 | 5466 ft | 224 kts | 288° |
| 2026-05-07 20:24 | 37.18898 | 27.92394 | 5093 ft | 221 kts | 288° |
| 2026-05-07 20:24 | 37.19335 | 27.90582 | 4725 ft | 212 kts | 288° |
| 2026-05-07 20:25 | 37.19753 | 27.88849 | 4343 ft | 202 kts | 289° |
| 2026-05-07 20:25 | 37.20151 | 27.87199 | 4017 ft | 192 kts | 289° |
| 2026-05-07 20:25 | 37.20528 | 27.85632 | 3691 ft | 183 kts | 289° |
| 2026-05-07 20:25 | 37.20889 | 27.84132 | 3385 ft | 176 kts | 289° |
| 2026-05-07 20:26 | 37.21238 | 27.82686 | 3086 ft | 171 kts | 289° |
| 2026-05-07 20:26 | 37.21572 | 27.81295 | 2809 ft | 161 kts | 288° |
| 2026-05-07 20:26 | 37.21889 | 27.79977 | 2520 ft | 155 kts | 288° |
| 2026-05-07 20:26 | 37.22197 | 27.78696 | 2262 ft | 152 kts | 288° |
| 2026-05-07 20:27 | 37.22501 | 27.77429 | 2004 ft | 151 kts | 288° |
| 2026-05-07 20:27 | 37.22800 | 27.76184 | 1740 ft | 151 kts | 287° |
| 2026-05-07 20:27 | 37.23102 | 27.74925 | 1480 ft | 151 kts | 287° |
| 2026-05-07 20:27 | 37.23405 | 27.73663 | 1218 ft | 151 kts | 287° |
| 2026-05-07 20:28 | 37.23708 | 27.72399 | 952 ft | 151 kts | 287° |
| 2026-05-07 20:28 | 37.24011 | 27.71134 | 690 ft | 151 kts | 285° |
| 2026-05-07 20:28 | 37.24313 | 27.69872 | 426 ft | 150 kts | 286° |
| 2026-05-07 20:28 | 37.24613 | 27.68618 | 194 ft | 150 kts | 285° |
| 2026-05-07 20:29 | 37.24901 | 27.67398 | 31 ft | 129 kts | 286° |
| 2026-05-07 20:29 | 37.25099 | 27.66587 | 30 ft | 80 kts | 286° |
| 2026-05-07 20:29 | 37.25227 | 27.66022 | 30 ft | 47 kts | 285° |
| 2026-05-07 20:29 | 37.25244 | 27.65760 | 29 ft | 25 kts | 261° |
| 2026-05-07 20:30 | 37.25198 | 27.65611 | 30 ft | 17 kts | 200° |
| 2026-05-07 20:30 | 37.25127 | 27.65695 | 30 ft | 17 kts | 102° |
| 2026-05-07 20:30 | 37.25094 | 27.65849 | 31 ft | 19 kts | 104° |
| 2026-05-07 20:30 | 37.25034 | 27.65953 | 31 ft | 13 kts | 179° |
| 2026-05-07 20:31 | 37.24935 | 27.65954 | 30 ft | 15 kts | 144° |
| 2026-05-07 20:31 | 37.24897 | 27.66071 | 30 ft | 16 kts | 106° |
| 2026-05-07 20:31 | 37.24896 | 27.66171 | 30 ft | 8 kts | 43° |
| 2026-05-07 20:31 | 37.24910 | 27.66179 | 30 ft | 0 kts | 21° |